METAR Data
IDs: Format: Raw Decoded Include TAF

Data at: 1722 UTC 01 Mar 2021

KVIS 011656Z AUTO 11003KT 10SM CLR 13/00 A3021 RMK AO2 SLP238 T01330000